Главная страница
METAR-TAF:

METAR-TAF

Аэропорты :

Эрста-Волда, Норвегия

широта: 62-11N, долгота: 006-04E, высота над уровнем моря: 7 м

Текущие метеонаблюдения

Эта сводка был подготовлена 54 минут назад, в 20:50 UTC
Ветер 5 Узел переменных направлений
Температура 16°C
Влажность 51%
Давление 1013 hPa
Видимость 10 км и более
небольшая облачность на высоте 5000 фута
Отдельные облака на высоте 7000 фута
Рассеянная облачность на высоте 9000 фута
ливни в окрестностях

METAR: ENOV 252050Z VRB05KT 9999 VCSH FEW050 SCT070 BKN090 16/06 Q1013 RMK WIND 2175FT 14022KT

Время: 23:44 (21:44 UTC)


TAF: отсутствует

Метеонаблюдения и прогнозы для более 4000 аэропортов (сводки METAR и TAF).

Имеющиеся станции представлены на карте желтыми и красными точками.

Чтобы увидеть название станции, наведите на нее мышь.

Затем щелкните, чтобы увидеть метеонаблюдения и метеопрогнозы.

Управление картой: чтобы увеличить масштаб, щелкните зеленые кнопки с черным крестиком; чтобы уменьшить масштаб, щелкните зеленую кнопку с тире; для просмотра соседних карт щелкайте зеленые стрелки.


METAR-TAF: